Time;durP1;ratioP1;P1;durP2;ratioP2;P2;SDS_P1;SDS_P2;PMS_P1;PMS_P2;Temp;Humidity;BMP_temperature;BMP_pressure;BME280_temperature;BME280_humidity;BME280_pressure;Samples;Min_cycle;Max_cycle;Signal;HPM_P1;HPM_P2
2022/08/23 00:03:27;;;;;;;;;;;;;;;;;;12581251;28;20638;-73
2022/08/23 00:09:28;;;;;;;0.60;0.60;;;;;;;;;;12598704;28;20293;-74
2022/08/23 00:15:30;;;;;;;;;;;;;;;;;;12598691;28;20032;-74
2022/08/23 00:21:31;;;;;;;0.70;0.70;;;;;;;;;;12597965;28;19927;-74
2022/08/23 00:27:34;;;;;;;1.30;0.73;;;;;;;;;;12579460;28;20043;-74
2022/08/23 00:33:35;;;;;;;0.55;0.55;;;;;;;;;;12563117;28;20532;-74
2022/08/23 00:39:39;;;;;;;0.77;0.70;;;;;;;;;;12579050;28;20044;-74
2022/08/23 00:52:07;;;;;;;1.13;0.60;;;;;;;;;;12578774;28;20039;-74
2022/08/23 00:58:09;;;;;;;0.95;0.80;;;;;;;;;;12596432;28;20486;-74
2022/08/23 01:04:12;;;;;;;1.00;0.82;;;;;;;;;;12578298;28;20076;-74
2022/08/23 01:10:22;;;;;;;0.68;0.68;;;;;;;;;;12577706;28;20401;-74
2022/08/23 01:16:32;;;;;;;0.70;0.70;;;;;;;;;;12577494;28;20028;-74
2022/08/23 01:22:34;;;;;;;0.77;0.77;;;;;;;;;;12577292;28;20032;-74
2022/08/23 01:28:36;;;;;;;1.02;0.82;;;;;;;;;;12576573;28;20065;-73
2022/08/23 01:34:38;;;;;;;0.68;0.65;;;;;;;;;;12576852;28;20040;-73
2022/08/23 01:40:40;;;;;;;0.60;0.60;;;;;;;;;;12576286;28;20494;-74
2022/08/23 01:46:43;;;;;;;0.75;0.73;;;;;;;;;;12576575;28;20043;-74
2022/08/23 01:52:46;;;;;;;1.10;0.75;;;;;;;;;;12575247;28;20040;-74
2022/08/23 01:58:47;;;;;;;;;;;;;;;;;;12559994;28;20052;-73
2022/08/23 02:04:49;;;;;;;0.90;0.90;;;;;;;;;;12576434;28;19908;-74
2022/08/23 02:10:52;;;;;;;1.02;1.02;;;;;;;;;;12575810;28;20028;-74
2022/08/23 02:16:55;;;;;;;1.30;1.00;;;;;;;;;;12575562;28;20041;-74
2022/08/23 02:22:56;;;;;;;1.05;0.80;;;;;;;;;;12575901;28;20497;-74
2022/08/23 02:28:58;;;;;;;1.20;1.08;;;;;;;;;;12593235;28;20082;-74
2022/08/23 02:35:00;;;;;;;1.17;1.00;;;;;;;;;;12575080;28;20044;-74
2022/08/23 02:41:02;;;;;;;1.80;1.25;;;;;;;;;;12575190;28;20051;-74
2022/08/23 02:47:06;;;;;;;1.55;1.08;;;;;;;;;;12575437;28;20036;-74
2022/08/23 02:53:09;;;;;;;1.20;1.10;;;;;;;;;;12574435;28;20036;-74
2022/08/23 02:59:12;;;;;;;1.20;1.10;;;;;;;;;;12574692;28;20389;-74
2022/08/23 03:05:15;;;;;;;1.10;1.00;;;;;;;;;;12561661;28;20028;-73
2022/08/23 03:11:20;;;;;;;1.50;1.40;;;;;;;;;;12566875;28;20064;-74
2022/08/23 03:17:24;;;;;;;1.20;1.10;;;;;;;;;;12567651;28;20045;-74
2022/08/23 03:23:26;;;;;;;1.08;0.98;;;;;;;;;;12582748;28;20036;-73
2022/08/23 03:29:28;;;;;;;2.15;1.95;;;;;;;;;;12566027;28;20052;-74
2022/08/23 03:35:38;;;;;;;1.50;1.40;;;;;;;;;;12582072;28;20025;-74
2022/08/23 03:41:42;;;;;;;1.50;1.40;;;;;;;;;;12565618;28;20044;-75
2022/08/23 03:47:45;;;;;;;1.70;1.35;;;;;;;;;;12599663;28;20032;-74
2022/08/23 03:53:48;;;;;;;1.70;1.60;;;;;;;;;;12591494;28;20028;-74
2022/08/23 03:59:50;;;;;;;1.80;1.70;;;;;;;;;;12565319;28;20052;-74
2022/08/23 04:05:52;;;;;;;2.35;1.50;;;;;;;;;;12564541;28;20059;-74
2022/08/23 04:11:54;;;;;;;2.63;1.80;;;;;;;;;;12564004;28;20505;-74
2022/08/23 04:17:58;;;;;;;1.70;1.60;;;;;;;;;;12579289;28;20048;-74
2022/08/23 04:24:00;;;;;;;1.75;1.65;;;;;;;;;;12598303;28;20043;-73
2022/08/23 04:30:03;;;;;;;1.70;1.60;;;;;;;;;;12563983;28;20052;-73
2022/08/23 04:36:05;;;;;;;3.17;1.70;;;;;;;;;;12580067;28;20032;-73
2022/08/23 04:42:19;;;;;;;2.00;1.90;;;;;;;;;;12578965;28;20474;-74
2022/08/23 04:48:22;;;;;;;1.50;1.40;;;;;;;;;;12578731;28;20044;-73
2022/08/23 04:54:25;;;;;;;1.63;1.52;;;;;;;;;;12578136;28;20044;-73
2022/08/23 05:00:48;;;;;;;1.73;1.63;;;;;;;;;;12595719;28;20044;-74
2022/08/23 05:06:51;;;;;;;1.58;1.48;;;;;;;;;;12578135;28;20037;-73
2022/08/23 05:12:53;;;;;;;1.55;1.45;;;;;;;;;;12595488;28;20028;-73
2022/08/23 05:18:56;;;;;;;2.00;1.80;;;;;;;;;;12577767;28;20059;-74
2022/08/23 05:24:58;;;;;;;;;;;;;;;;;;12577430;28;20055;-74
2022/08/23 05:31:02;;;;;;;1.50;1.40;;;;;;;;;;12560572;28;19920;-73
2022/08/23 05:37:09;;;;;;;2.13;2.00;;;;;;;;;;12576730;28;20283;-74
2022/08/23 05:43:15;;;;;;;1.42;1.33;;;;;;;;;;12560421;28;20039;-74
2022/08/23 05:49:17;;;;;;;1.70;1.60;;;;;;;;;;12576619;28;20043;-74
2022/08/23 05:55:19;;;;;;;1.83;1.63;;;;;;;;;;12576109;28;20036;-74
2022/08/23 06:01:47;;;;;;;2.42;2.10;;;;;;;;;;12563205;28;20053;-74
2022/08/23 06:07:52;;;;;;;1.88;1.77;;;;;;;;;;12593604;28;20032;-74
2022/08/23 06:13:59;;;;;;;2.15;1.95;;;;;;;;;;12576801;28;20051;-74
2022/08/23 06:20:05;;;;;;;2.17;1.98;;;;;;;;;;12575437;28;20498;-74
2022/08/23 06:26:15;;;;;;;1.83;1.73;;;;;;;;;;12575305;28;20036;-74
2022/08/23 06:32:18;;;;;;;2.03;1.83;;;;;;;;;;12575544;28;20410;-74
2022/08/23 06:38:40;;;;;;;2.47;2.28;;;;;;;;;;12579597;28;20040;-74
2022/08/23 06:45:01;;;;;;;1.85;1.75;;;;;;;;;;12602369;28;20409;-74
2022/08/23 06:51:13;;;;;;;1.90;1.80;;;;;;;;;;12584381;28;20036;-74
2022/08/23 06:57:37;;;;;;;1.85;1.75;;;;;;;;;;12600312;28;20037;-74
2022/08/23 07:03:59;;;;;;;;;;;;;;;;;;12561058;28;20036;-74
2022/08/23 07:10:19;;;;;;;1.98;1.75;;;;;;;;;;12586202;28;19908;-74
2022/08/23 07:16:21;;;;;;;1.65;1.55;;;;;;;;;;12600987;28;20040;-74
2022/08/23 07:22:23;;;;;;;1.73;1.63;;;;;;;;;;12580985;28;20040;-74
2022/08/23 07:28:25;;;;;;;2.47;1.35;;;;;;;;;;12600116;28;20060;-74
2022/08/23 07:34:27;;;;;;;1.58;1.48;;;;;;;;;;12565546;28;20382;-74
2022/08/23 07:40:29;;;;;;;2.15;1.40;;;;;;;;;;12565128;28;20043;-74
2022/08/23 07:46:33;;;;;;;1.80;1.20;;;;;;;;;;12582039;28;20036;-74
2022/08/23 07:52:37;;;;;;;1.63;1.52;;;;;;;;;;12581470;28;20033;-74
2022/08/23 07:58:39;;;;;;;2.00;1.50;;;;;;;;;;12565037;28;20259;-74
2022/08/23 08:05:01;;;;;;;1.60;1.50;;;;;;;;;;12573328;28;20059;-74
2022/08/23 08:11:04;;;;;;;2.08;1.48;;;;;;;;;;12580960;28;20115;-74
2022/08/23 08:17:05;;;;;;;2.13;1.20;;;;;;;;;;12580645;28;20036;-74
2022/08/23 08:23:28;;;;;;;2.05;1.40;;;;;;;;;;12556865;28;20401;-74
2022/08/23 08:29:47;;;;;;;1.27;1.08;;;;;;;;;;12565874;28;20087;-74
2022/08/23 08:35:49;;;;;;;1.13;0.90;;;;;;;;;;12579562;28;20029;-74
2022/08/23 08:41:58;;;;;;;1.88;1.40;;;;;;;;;;12578972;28;20040;-74
2022/08/23 08:48:02;;;;;;;1.23;0.98;;;;;;;;;;12562459;28;20037;-74
2022/08/23 08:54:12;;;;;;;1.98;1.30;;;;;;;;;;12563214;28;20035;-74
2022/08/23 09:00:27;;;;;;;1.77;1.25;;;;;;;;;;12578976;28;20051;-74
2022/08/23 09:06:48;;;;;;;1.02;0.93;;;;;;;;;;12577976;28;20386;-74
2022/08/23 09:12:54;;;;;;;1.67;0.90;;;;;;;;;;12577535;28;20041;-74
2022/08/23 09:18:56;;;;;;;1.33;1.23;;;;;;;;;;12577353;28;20048;-74
2022/08/23 09:24:58;;;;;;;0.95;0.95;;;;;;;;;;12594693;28;20400;-74
2022/08/23 09:31:06;;;;;;;1.15;0.90;;;;;;;;;;12577178;28;20056;-73
2022/08/23 09:37:12;;;;;;;1.58;0.98;;;;;;;;;;12576790;28;20024;-74
2022/08/23 09:43:24;;;;;;;1.27;0.90;;;;;;;;;;12576534;28;20501;-74
2022/08/23 09:49:29;;;;;;;0.80;0.80;;;;;;;;;;12576212;28;20044;-74
2022/08/23 09:55:42;;;;;;;1.45;0.90;;;;;;;;;;12576139;28;20401;-74
2022/08/23 10:01:47;;;;;;;1.42;0.82;;;;;;;;;;12576669;28;20514;-74
2022/08/23 10:07:59;;;;;;;1.85;0.75;;;;;;;;;;12575835;28;20025;-74
2022/08/23 10:14:02;;;;;;;1.17;0.70;;;;;;;;;;12577442;28;20418;-73
2022/08/23 10:20:14;;;;;;;1.80;0.93;;;;;;;;;;12586300;28;20044;-74
2022/08/23 10:26:34;;;;;;;1.05;0.70;;;;;;;;;;12584532;28;20035;-74
2022/08/23 10:32:51;;;;;;;0.50;0.50;;;;;;;;;;12585171;28;20049;-74
2022/08/23 10:38:57;;;;;;;0.40;0.40;;;;;;;;;;12568214;28;20045;-74
2022/08/23 10:45:02;;;;;;;2.25;0.60;;;;;;;;;;12584298;28;20043;-73
2022/08/23 10:51:15;;;;;;;1.20;0.40;;;;;;;;;;12584085;28;20028;-73
2022/08/23 10:57:20;;;;;;;0.50;0.50;;;;;;;;;;12584080;28;20052;-73
2022/08/23 11:03:31;;;;;;;1.05;0.60;;;;;;;;;;12584232;28;20040;-75
2022/08/23 11:09:38;;;;;;;1.20;0.70;;;;;;;;;;12583722;28;20394;-74
2022/08/23 11:15:45;;;;;;;1.63;0.70;;;;;;;;;;12566990;28;20032;-75
2022/08/23 11:21:50;;;;;;;1.50;0.50;;;;;;;;;;12566971;28;20044;-75
2022/08/23 11:28:12;;;;;;;1.33;0.73;;;;;;;;;;12582007;28;20053;-74
2022/08/23 11:34:24;;;;;;;1.23;0.60;;;;;;;;;;12582961;28;20032;-75
2022/08/23 11:40:49;;;;;;;0.82;0.70;;;;;;;;;;12582856;28;20414;-75
2022/08/23 11:46:58;;;;;;;0.57;0.38;;;;;;;;;;12565865;28;20045;-75
2022/08/23 11:53:29;;;;;;;0.40;0.30;;;;;;;;;;12581487;28;20043;-74
2022/08/23 11:59:39;;;;;;;0.90;0.50;;;;;;;;;;12545568;28;20383;-75
2022/08/23 12:06:02;;;;;;;0.25;0.20;;;;;;;;;;12565280;28;20039;-74
2022/08/23 12:12:10;;;;;;;0.30;0.30;;;;;;;;;;12564292;28;20474;-74
2022/08/23 12:18:13;;;;;;;0.40;0.30;;;;;;;;;;12598438;28;20040;-73
2022/08/23 12:24:16;;;;;;;1.42;0.50;;;;;;;;;;12580111;28;20036;-74
2022/08/23 12:30:17;;;;;;;0.60;0.45;;;;;;;;;;12579883;28;20056;-74
2022/08/23 12:36:28;;;;;;;0.30;0.30;;;;;;;;;;12578839;28;20030;-75
2022/08/23 12:42:34;;;;;;;4.97;0.65;;;;;;;;;;12560916;28;20047;-75
2022/08/23 12:48:45;;;;;;;0.50;0.50;;;;;;;;;;12595065;28;20033;-75
2022/08/23 12:54:53;;;;;;;1.30;0.50;;;;;;;;;;12593853;28;20024;-74
2022/08/23 13:00:57;;;;;;;0.40;0.25;;;;;;;;;;12595757;28;20528;-74
2022/08/23 13:07:01;;;;;;;0.93;0.40;;;;;;;;;;12578156;28;20029;-73
2022/08/23 13:13:03;;;;;;;0.32;0.30;;;;;;;;;;12595347;28;20037;-74
2022/08/23 13:19:17;;;;;;;1.00;0.50;;;;;;;;;;12577374;28;20036;-74
2022/08/23 13:25:27;;;;;;;0.50;0.50;;;;;;;;;;12576880;28;20528;-75
2022/08/23 13:31:52;;;;;;;0.73;0.43;;;;;;;;;;12594890;28;20049;-74
2022/08/23 13:37:56;;;;;;;0.40;0.30;;;;;;;;;;12564552;28;20048;-75
2022/08/23 13:44:05;;;;;;;1.00;0.45;;;;;;;;;;12577527;28;20059;-74
2022/08/23 13:50:14;;;;;;;0.80;0.28;;;;;;;;;;12594181;28;20024;-74
2022/08/23 13:56:16;;;;;;;0.43;0.40;;;;;;;;;;12576217;28;20037;-74
2022/08/23 14:02:19;;;;;;;0.45;0.40;;;;;;;;;;12594714;28;20386;-75
2022/08/23 14:08:21;;;;;;;1.48;0.98;;;;;;;;;;12593473;28;20037;-74
2022/08/23 14:14:23;;;;;;;1.38;0.52;;;;;;;;;;12593669;28;20501;-75
2022/08/23 14:20:25;;;;;;;0.93;0.50;;;;;;;;;;12575528;28;20048;-74
2022/08/23 14:26:27;;;;;;;1.33;0.50;;;;;;;;;;12575528;28;20391;-75
2022/08/23 14:32:28;;;;;;;0.63;0.60;;;;;;;;;;12593505;28;20067;-73
2022/08/23 14:38:30;;;;;;;0.70;0.40;;;;;;;;;;12574763;28;20045;-75
2022/08/23 14:44:32;;;;;;;0.40;0.40;;;;;;;;;;12592551;28;20474;-74
2022/08/23 14:50:34;;;;;;;1.00;0.38;;;;;;;;;;12574738;28;20044;-75
2022/08/23 14:56:35;;;;;;;0.43;0.35;;;;;;;;;;12592803;28;20033;-74
2022/08/23 15:02:37;;;;;;;0.60;0.60;;;;;;;;;;12599989;28;20194;-74
2022/08/23 15:08:40;;;;;;;0.40;0.40;;;;;;;;;;12585405;28;20041;-75
2022/08/23 15:14:42;;;;;;;0.30;0.30;;;;;;;;;;12583617;28;20045;-74
2022/08/23 15:20:44;;;;;;;0.73;0.50;;;;;;;;;;12600769;28;20036;-74
2022/08/23 15:26:46;;;;;;;0.65;0.40;;;;;;;;;;12600632;28;20047;-74
2022/08/23 15:32:48;;;;;;;0.47;0.30;;;;;;;;;;12600674;28;20049;-74
2022/08/23 15:38:50;;;;;;;0.50;0.20;;;;;;;;;;12581790;28;20045;-73
2022/08/23 15:44:52;;;;;;;0.40;0.30;;;;;;;;;;12582149;28;20032;-74
2022/08/23 15:50:54;;;;;;;0.45;0.45;;;;;;;;;;12580644;28;20043;-74
2022/08/23 15:56:56;;;;;;;0.30;0.30;;;;;;;;;;12580567;28;20044;-75
2022/08/23 16:02:58;;;;;;;0.30;0.20;;;;;;;;;;12581390;28;20052;-74
2022/08/23 16:09:00;;;;;;;2.05;0.40;;;;;;;;;;12581212;28;20039;-74
2022/08/23 16:15:01;;;;;;;0.30;0.30;;;;;;;;;;12579844;28;20024;-74
2022/08/23 16:21:03;;;;;;;0.35;0.28;;;;;;;;;;12563866;28;20408;-74
2022/08/23 16:27:06;;;;;;;0.30;0.30;;;;;;;;;;12598116;28;20040;-74
2022/08/23 16:33:07;;;;;;;0.43;0.30;;;;;;;;;;12563289;28;20422;-74
2022/08/23 16:39:09;;;;;;;1.85;0.38;;;;;;;;;;12596977;28;20040;-74
2022/08/23 16:45:11;;;;;;;1.33;0.40;;;;;;;;;;12597195;28;20040;-74
2022/08/23 16:51:13;;;;;;;0.50;0.30;;;;;;;;;;12596228;28;20044;-73
2022/08/23 16:57:16;;;;;;;0.50;0.40;;;;;;;;;;12597054;28;20029;-74
2022/08/23 17:03:18;;;;;;;0.25;0.25;;;;;;;;;;12578734;28;20533;-74
2022/08/23 17:09:21;;;;;;;0.50;0.30;;;;;;;;;;12577745;28;20032;-73
2022/08/23 17:15:25;;;;;;;0.38;0.30;;;;;;;;;;12577927;28;20048;-72
2022/08/23 17:21:27;;;;;;;0.32;0.32;;;;;;;;;;12595064;28;20051;-74
2022/08/23 17:27:29;;;;;;;0.45;0.28;;;;;;;;;;12576878;28;20040;-73
2022/08/23 17:33:30;;;;;;;1.00;0.43;;;;;;;;;;12594747;28;20055;-73
2022/08/23 17:39:33;;;;;;;0.45;0.30;;;;;;;;;;12576758;28;20051;-73
2022/08/23 17:45:39;;;;;;;0.50;0.40;;;;;;;;;;12593739;28;20035;-74
2022/08/23 17:51:41;;;;;;;0.30;0.20;;;;;;;;;;12557405;28;20032;-74
2022/08/23 17:57:44;;;;;;;0.30;0.30;;;;;;;;;;12591464;28;20032;-74
2022/08/23 18:03:46;;;;;;;0.40;0.40;;;;;;;;;;12591495;28;20049;-74
2022/08/23 18:09:47;;;;;;;0.77;0.50;;;;;;;;;;12575663;28;20028;-73
2022/08/23 18:15:49;;;;;;;0.40;0.40;;;;;;;;;;12593619;28;20390;-74
2022/08/23 18:21:51;;;;;;;0.43;0.40;;;;;;;;;;12575422;28;20543;-74
2022/08/23 18:28:05;;;;;;;0.40;0.40;;;;;;;;;;12592858;28;20049;-73
2022/08/23 18:34:07;;;;;;;0.50;0.43;;;;;;;;;;12593713;28;20500;-74
2022/08/23 18:40:09;;;;;;;0.73;0.30;;;;;;;;;;12585381;28;20036;-73
2022/08/23 18:46:11;;;;;;;1.58;0.52;;;;;;;;;;12585059;28;20031;-74
2022/08/23 18:52:13;;;;;;;0.35;0.35;;;;;;;;;;12602099;28;20036;-75
2022/08/23 18:58:16;;;;;;;0.50;0.50;;;;;;;;;;12603031;28;20024;-73
2022/08/23 19:04:18;;;;;;;0.35;0.35;;;;;;;;;;12601833;28;20051;-74
2022/08/23 19:10:19;;;;;;;0.60;0.60;;;;;;;;;;12601606;28;20028;-74
2022/08/23 19:16:21;;;;;;;0.90;0.70;;;;;;;;;;12566803;28;20036;-74
2022/08/23 19:22:23;;;;;;;0.75;0.68;;;;;;;;;;12582614;28;20044;-75
2022/08/23 19:28:25;;;;;;;0.60;0.60;;;;;;;;;;12597821;28;20048;-74
2022/08/23 19:34:27;;;;;;;1.80;0.60;;;;;;;;;;12597824;28;20024;-74
2022/08/23 19:40:29;;;;;;;0.70;0.40;;;;;;;;;;12598707;28;20044;-73
2022/08/23 19:46:31;;;;;;;0.80;0.50;;;;;;;;;;12599442;28;20036;-73
2022/08/23 19:52:33;;;;;;;0.80;0.50;;;;;;;;;;12565047;28;20036;-73
2022/08/23 19:58:35;;;;;;;1.33;0.60;;;;;;;;;;12599582;28;20040;-74
2022/08/23 20:04:37;;;;;;;0.95;0.70;;;;;;;;;;12599236;28;20037;-73
2022/08/23 20:10:39;;;;;;;0.90;0.55;;;;;;;;;;12580902;28;20043;-73
2022/08/23 20:16:41;;;;;;;1.00;0.82;;;;;;;;;;12598218;28;20047;-74
2022/08/23 20:29:04;;;;;;;0.57;0.57;;;;;;;;;;12597449;28;20052;-73
2022/08/23 20:35:07;;;;;;;0.52;0.52;;;;;;;;;;12579509;28;20036;-73
2022/08/23 20:41:10;;;;;;;0.90;0.90;;;;;;;;;;12579708;28;20398;-73
2022/08/23 20:47:11;;;;;;;0.98;0.60;;;;;;;;;;12578699;28;20051;-73
2022/08/23 20:53:13;;;;;;;;;;;;;;;;;;12597180;28;20037;-74
2022/08/23 20:59:14;;;;;;;1.35;0.75;;;;;;;;;;12578508;28;19923;-73
2022/08/23 21:05:16;;;;;;;0.98;0.95;;;;;;;;;;12561259;28;20036;-74
2022/08/23 21:11:18;;;;;;;1.40;0.77;;;;;;;;;;12577199;28;20044;-74
2022/08/23 21:17:19;;;;;;;;;;;;;;;;;;12577917;28;20038;-74
2022/08/23 21:23:21;;;;;;;0.60;0.60;;;;;;;;;;12577370;28;20377;-74
2022/08/23 21:29:23;;;;;;;0.82;0.82;;;;;;;;;;12594841;28;20079;-74
2022/08/23 21:35:25;;;;;;;;;;;;;;;;;;12577338;28;20036;-74
2022/08/23 21:41:40;;;;;;;0.75;0.70;;;;;;;;;;12576741;28;19916;-74
2022/08/23 21:47:42;;;;;;;1.20;0.70;;;;;;;;;;12559838;28;20418;-74
2022/08/23 21:53:44;;;;;;;;;;;;;;;;;;12576855;28;20418;-73
2022/08/23 21:59:45;;;;;;;1.10;1.00;;;;;;;;;;12594314;28;19916;-75
2022/08/23 22:05:47;;;;;;;;;;;;;;;;;;12577504;28;20274;-74
2022/08/23 22:11:51;;;;;;;0.80;0.80;;;;;;;;;;12575256;28;19920;-74
2022/08/23 22:17:53;;;;;;;1.08;0.68;;;;;;;;;;12593368;28;20036;-74
2022/08/23 22:23:54;;;;;;;1.30;0.80;;;;;;;;;;12593043;28;20044;-75
2022/08/23 22:29:57;;;;;;;;;;;;;;;;;;12593633;28;20052;-75
2022/08/23 22:36:03;;;;;;;0.65;0.60;;;;;;;;;;12592822;28;19919;-74
2022/08/23 22:42:05;;;;;;;0.73;0.73;;;;;;;;;;12574881;28;20041;-74
2022/08/23 22:48:07;;;;;;;;;;;;;;;;;;12575051;28;20025;-74
2022/08/23 22:54:09;;;;;;;0.80;0.80;;;;;;;;;;12574859;28;20397;-75
2022/08/23 23:00:11;;;;;;;1.17;0.80;;;;;;;;;;12574757;28;20502;-74
2022/08/23 23:06:13;;;;;;;0.88;0.88;;;;;;;;;;12592491;28;20509;-74
2022/08/23 23:12:14;;;;;;;1.02;1.02;;;;;;;;;;12574523;28;20050;-74
2022/08/23 23:18:18;;;;;;;1.02;1.02;;;;;;;;;;12592381;28;20600;-74
2022/08/23 23:24:21;;;;;;;1.55;0.90;;;;;;;;;;12599050;28;20059;-75
2022/08/23 23:30:22;;;;;;;1.88;1.15;;;;;;;;;;12582660;28;20055;-75
2022/08/23 23:36:25;;;;;;;0.93;0.90;;;;;;;;;;12582199;28;20032;-74
2022/08/23 23:42:27;;;;;;;0.90;0.90;;;;;;;;;;12581932;28;20044;-75
2022/08/23 23:48:28;;;;;;;1.15;0.90;;;;;;;;;;12581581;28;20532;-74
2022/08/23 23:54:30;;;;;;;1.48;1.20;;;;;;;;;;12581700;28;20394;-74
